Time;durP1;ratioP1;P1;durP2;ratioP2;P2;SDS_P1;SDS_P2;PMS_P1;PMS_P2;Temp;Humidity;BMP_temperature;BMP_pressure;BME280_temperature;BME280_humidity;BME280_pressure;Samples;Min_cycle;Max_cycle;Signal;HPM_P1;HPM_P2
2022/07/31 00:01:58;;;;;;;0.90;0.90;;;23.80;99.00;;;23.94;48.82;101370.50;4998120;27;97346;-44
2022/07/31 00:04:24;;;;;;;4.03;2.50;;;23.80;99.00;;;23.94;48.79;101365.13;4998212;27;97136;-48
2022/07/31 00:06:51;;;;;;;0.90;0.90;;;23.80;98.80;;;23.94;48.85;101365.13;4995386;27;102833;-45
2022/07/31 00:09:17;;;;;;;1.10;1.00;;;23.80;98.90;;;23.94;48.86;101362.44;4996738;27;97330;-47
2022/07/31 00:11:42;;;;;;;4.47;3.23;;;23.80;99.00;;;23.95;48.85;101365.97;5004034;27;97293;-46
2022/07/31 00:14:09;;;;;;;1.47;1.37;;;23.80;98.90;;;23.93;49.05;101374.19;5002432;27;96754;-46
2022/07/31 00:16:35;;;;;;;1.37;1.27;;;23.70;99.00;;;23.91;49.08;101370.75;4998282;27;97866;-44
2022/07/31 00:19:01;;;;;;;3.03;1.97;;;23.70;99.00;;;23.92;49.02;101367.09;5001484;27;98043;-45
2022/07/31 00:21:27;;;;;;;1.33;1.23;;;23.70;99.00;;;23.91;48.94;101365.38;5009059;27;97108;-47
2022/07/31 00:23:53;;;;;;;1.43;1.30;;;23.70;99.00;;;23.91;49.03;101365.38;4999687;27;97012;-48
2022/07/31 00:26:19;;;;;;;0.90;0.90;;;23.70;99.00;;;23.89;48.72;101364.66;4999799;27;98053;-49
2022/07/31 00:28:46;;;;;;;2.70;1.30;;;23.70;98.90;;;23.90;49.09;101362.81;4988264;27;97587;-48
2022/07/31 00:31:12;;;;;;;1.83;1.10;;;23.70;99.00;;;23.89;49.02;101363.78;5000487;27;97446;-48
2022/07/31 00:33:38;;;;;;;1.20;1.10;;;23.70;99.00;;;23.88;48.98;101360.25;4998753;27;97105;-50
2022/07/31 00:36:04;;;;;;;1.77;1.37;;;23.70;99.00;;;23.88;49.08;101357.53;5003996;27;97491;-49
2022/07/31 00:38:30;;;;;;;1.33;1.10;;;23.70;99.00;;;23.88;48.99;101354.84;5017009;27;97185;-56
2022/07/31 00:40:55;;;;;;;1.27;1.17;;;23.70;99.00;;;23.88;48.96;101352.16;5002001;27;96787;-44
2022/07/31 00:43:21;;;;;;;1.30;1.20;;;23.70;99.00;;;23.88;49.13;101344.06;5007218;27;97169;-46
2022/07/31 00:45:48;;;;;;;1.10;1.00;;;23.70;99.00;;;23.87;49.01;101347.75;5000305;27;100838;-45
2022/07/31 00:48:13;;;;;;;1.73;1.13;;;23.70;99.00;;;23.87;49.28;101346.88;5000171;27;97869;-49
2022/07/31 00:50:39;;;;;;;1.20;1.10;;;23.70;99.00;;;23.87;49.10;101347.75;4995492;27;97164;-47
2022/07/31 00:53:05;;;;;;;1.17;1.07;;;23.70;99.00;;;23.86;49.04;101340.63;5001260;27;97482;-47
2022/07/31 00:55:31;;;;;;;1.00;0.90;;;23.70;99.00;;;23.88;49.07;101333.31;4997463;27;97482;-48
2022/07/31 00:57:57;;;;;;;1.13;1.03;;;23.70;99.00;;;23.88;49.12;101337.84;4988878;27;98094;-46
2022/07/31 01:00:23;;;;;;;1.40;1.30;;;23.70;99.00;;;23.87;48.99;101331.59;5000104;27;97084;-48
2022/07/31 01:02:49;;;;;;;1.40;1.30;;;23.70;98.90;;;23.87;49.11;101326.19;5000036;27;96751;-46
2022/07/31 01:05:17;;;;;;;1.30;1.20;;;23.70;99.00;;;23.88;49.14;101333.31;5000847;27;98353;-46
2022/07/31 01:07:45;;;;;;;1.73;1.00;;;23.70;99.00;;;23.88;49.18;101333.31;4999351;27;97301;-46
2022/07/31 01:10:35;;;;;;;1.30;1.20;;;23.70;99.00;;;23.88;49.12;101333.31;4999092;27;97100;-48
2022/07/31 01:13:08;;;;;;;1.23;1.13;;;23.70;99.00;;;23.88;49.14;101327.91;4991936;27;97147;-45
2022/07/31 01:15:36;;;;;;;1.47;1.37;;;23.70;99.00;;;23.88;49.27;101327.91;5006013;27;97165;-45
2022/07/31 01:18:03;;;;;;;1.03;0.97;;;23.70;99.30;;;23.89;49.23;101334.16;5003756;28;100773;-46
2022/07/31 01:20:31;;;;;;;1.27;1.17;;;23.80;99.00;;;23.90;49.35;101331.34;5013179;28;96926;-44
2022/07/31 01:23:30;;;;;;;1.87;1.33;;;23.80;99.00;;;23.92;49.07;101329.38;4997200;28;97057;-47
2022/07/31 01:26:36;;;;;;;1.40;1.30;;;23.80;98.60;;;23.91;49.23;101332.19;5006328;27;102016;-46
2022/07/31 01:29:28;;;;;;;1.63;1.30;;;23.80;99.10;;;23.91;49.09;101333.03;4996601;27;101529;-46
2022/07/31 01:32:04;;;;;;;1.83;1.43;;;23.70;98.60;;;23.91;49.15;101338.44;4986044;27;97265;-46
2022/07/31 01:34:47;;;;;;;1.20;1.10;;;23.80;99.00;;;23.93;49.06;101325.69;4991358;27;97325;-51
2022/07/31 01:37:27;;;;;;;1.30;1.20;;;23.80;99.00;;;23.92;49.02;101323.13;5004477;27;98387;-43
2022/07/31 01:40:11;;;;;;;1.00;1.00;;;23.80;99.00;;;23.94;49.14;101321.16;4997023;27;97117;-46
2022/07/31 01:42:41;;;;;;;1.20;1.10;;;23.80;99.10;;;23.92;49.06;101318.59;5000402;27;97291;-44
2022/07/31 01:45:11;;;;;;;1.50;1.40;;;23.80;99.10;;;23.90;49.22;101309.78;5000646;27;97392;-44
2022/07/31 01:47:40;;;;;;;1.47;1.37;;;23.80;99.10;;;23.92;49.14;101318.59;4996974;27;97247;-48
2022/07/31 01:50:08;;;;;;;1.17;1.13;;;23.80;99.10;;;23.90;49.26;101315.16;4997123;27;97502;-44
2022/07/31 01:52:35;;;;;;;1.50;1.40;;;23.80;99.10;;;23.89;49.15;101318.84;4990068;28;97341;-45
2022/07/31 01:55:03;;;;;;;2.05;1.25;;;23.80;99.10;;;23.88;49.42;101317.13;5000311;27;97675;-45
2022/07/31 01:57:31;;;;;;;1.57;1.47;;;23.80;99.10;;;23.88;49.33;101316.28;5005499;27;97658;-46
2022/07/31 02:00:03;;;;;;;1.30;1.20;;;23.70;99.10;;;23.88;49.23;101311.75;5003005;28;99953;-44
2022/07/31 02:02:29;;;;;;;1.38;1.27;;;23.80;99.10;;;23.89;49.25;101305.38;4996448;27;96601;-44
2022/07/31 02:04:57;;;;;;;1.40;1.30;;;23.80;99.10;;;23.90;49.23;101299.00;4997401;27;97054;-45
2022/07/31 02:07:24;;;;;;;1.58;1.48;;;23.80;99.10;;;23.90;49.16;101304.41;5001811;27;97970;-46
2022/07/31 02:09:51;;;;;;;1.58;1.48;;;23.80;99.40;;;23.92;49.19;101312.34;4993207;27;98226;-47
2022/07/31 02:12:19;;;;;;;1.30;1.20;;;23.80;99.10;;;23.91;49.05;101306.09;4999120;28;96664;-46
2022/07/31 02:14:46;;;;;;;1.45;1.35;;;23.80;99.10;;;23.91;49.27;101311.50;4994223;27;103395;-46
2022/07/31 02:17:13;;;;;;;1.60;1.30;;;23.80;99.10;;;23.92;48.87;101313.19;4989802;28;98569;-44
2022/07/31 02:19:40;;;;;;;1.50;1.40;;;23.80;98.60;;;23.92;49.13;101313.19;4995460;27;99065;-48
2022/07/31 02:22:06;;;;;;;1.40;1.20;;;23.70;99.00;;;23.92;49.03;101307.81;4999909;27;96795;-47
2022/07/31 02:24:35;;;;;;;1.40;1.30;;;23.70;99.00;;;23.91;49.15;101311.50;4991142;27;96905;-47
2022/07/31 02:27:02;;;;;;;1.40;1.30;;;23.70;99.10;;;23.90;49.25;101309.78;5006022;27;104578;-46
2022/07/31 02:29:32;;;;;;;1.53;1.43;;;23.70;99.10;;;23.90;49.23;101309.78;4998206;27;97467;-47
2022/07/31 02:31:59;;;;;;;1.50;1.40;;;23.70;99.20;;;23.88;49.34;101302.81;4990025;28;96711;-46
2022/07/31 02:34:26;;;;;;;1.30;1.20;;;23.70;99.10;;;23.87;49.36;101307.34;4998760;28;98946;-44
2022/07/31 02:36:53;;;;;;;1.50;1.40;;;23.70;99.10;;;23.88;49.27;101303.66;4984470;27;99828;-46
2022/07/31 02:39:21;;;;;;;1.80;1.40;;;23.70;99.10;;;23.89;49.27;101304.53;4995780;28;97409;-47
2022/07/31 02:41:48;;;;;;;1.67;1.57;;;23.70;99.20;;;23.89;49.29;101301.81;4995416;28;97520;-48
2022/07/31 02:44:15;;;;;;;1.50;1.40;;;23.70;99.10;;;23.89;49.26;101291.06;4996748;28;97295;-46
2022/07/31 02:46:44;;;;;;;1.30;1.20;;;23.80;99.20;;;23.90;49.19;101299.00;4984948;27;97229;-49
2022/07/31 02:49:15;;;;;;;1.50;1.40;;;23.80;99.20;;;23.90;49.28;101293.63;5002847;28;97647;-44
2022/07/31 02:51:41;;;;;;;1.30;1.20;;;23.80;99.10;;;23.91;49.21;101299.84;5003844;27;98842;-46
2022/07/31 02:54:07;;;;;;;1.80;1.40;;;23.80;99.10;;;23.90;49.24;101303.53;5012500;28;96981;-45
2022/07/31 02:56:33;;;;;;;1.27;1.17;;;23.80;99.20;;;23.91;49.09;101294.47;4999835;27;96888;-44
2022/07/31 02:58:59;;;;;;;1.40;1.30;;;23.80;99.10;;;23.90;49.12;101290.91;4999381;28;97620;-44
2022/07/31 03:01:25;;;;;;;1.53;1.43;;;23.80;99.10;;;23.92;48.83;101291.66;5005249;28;96784;-43
2022/07/31 03:03:52;;;;;;;4.00;2.53;;;23.80;98.70;;;23.89;48.07;101286.53;4994746;28;100681;-46
2022/07/31 03:06:18;;;;;;;4.70;2.50;;;23.70;97.90;;;23.85;47.79;101294.94;5004023;27;97560;-44
2022/07/31 03:08:44;;;;;;;3.43;2.50;;;23.50;97.70;;;23.75;48.96;101305.63;5002585;27;109953;-47
2022/07/31 03:11:10;;;;;;;2.80;1.80;;;23.40;98.70;;;23.71;49.58;101314.94;5003950;27;96951;-45
2022/07/31 03:13:38;;;;;;;3.23;2.40;;;23.40;99.50;;;23.73;48.94;101307.59;4997105;27;96893;-45
2022/07/31 03:16:10;;;;;;;2.37;2.17;;;23.40;98.80;;;23.66;49.08;101317.13;4996636;28;97489;-44
2022/07/31 03:18:38;;;;;;;2.00;1.80;;;23.30;98.80;;;23.66;49.88;101295.59;4993642;27;97386;-44
2022/07/31 03:21:04;;;;;;;1.50;1.40;;;23.40;99.80;;;23.66;49.78;101299.16;4996288;27;96772;-49
2022/07/31 03:23:35;;;;;;;1.60;1.50;;;23.40;99.70;;;23.69;49.66;101300.72;4994080;27;97509;-53
2022/07/31 03:26:02;;;;;;;1.60;1.50;;;23.50;99.60;;;23.66;49.87;101301.84;4995122;27;100523;-46
2022/07/31 03:28:28;;;;;;;1.60;1.50;;;23.50;99.60;;;23.71;49.64;101304.16;5006065;27;97179;-46
2022/07/31 03:30:55;;;;;;;1.60;1.50;;;23.50;99.20;;;23.73;49.56;101303.06;4993219;27;96868;-43
2022/07/31 03:33:22;;;;;;;1.60;1.50;;;23.50;99.20;;;23.74;49.51;101301.22;5000299;27;97484;-44
2022/07/31 03:35:49;;;;;;;1.37;1.27;;;23.50;99.40;;;23.74;49.47;101295.84;4996951;27;97548;-46
2022/07/31 03:38:15;;;;;;;1.53;1.43;;;23.50;99.20;;;23.74;49.65;101298.53;5007892;27;97786;-45
2022/07/31 03:40:41;;;;;;;1.73;1.63;;;23.60;99.50;;;23.76;49.37;101299.28;4993423;27;97247;-45
2022/07/31 03:43:07;;;;;;;1.60;1.50;;;23.60;99.10;;;23.77;49.53;101297.44;4997549;27;97437;-46
2022/07/31 03:45:35;;;;;;;1.50;1.40;;;23.60;99.30;;;23.77;49.36;101298.28;4992074;27;97274;-46
2022/07/31 03:48:01;;;;;;;1.63;1.53;;;23.60;99.40;;;23.78;49.45;101310.78;4995116;28;97492;-48
2022/07/31 03:50:28;;;;;;;1.60;1.50;;;23.60;99.30;;;23.78;49.54;101305.38;5005098;27;97542;-44
2022/07/31 03:52:55;;;;;;;1.60;1.50;;;23.60;99.30;;;23.79;49.51;101312.47;4993439;28;97474;-45
2022/07/31 03:55:21;;;;;;;1.43;1.33;;;23.60;99.30;;;23.79;49.58;101315.19;4986689;27;98128;-45
2022/07/31 03:57:48;;;;;;;1.40;1.30;;;23.60;99.30;;;23.81;49.30;101315.91;4989205;28;97193;-45
2022/07/31 04:00:15;;;;;;;1.80;1.70;;;23.60;99.20;;;23.81;49.47;101317.75;4990084;28;97445;-46
2022/07/31 04:02:41;;;;;;;2.07;1.47;;;23.60;99.20;;;23.81;49.51;101315.06;4986439;27;97106;-46
2022/07/31 04:05:08;;;;;;;1.67;1.57;;;23.60;99.20;;;23.80;49.44;101308.81;4996633;27;97945;-44
2022/07/31 04:07:35;;;;;;;1.70;1.60;;;23.60;99.30;;;23.79;49.38;101299.00;4997791;27;97200;-47
2022/07/31 04:10:01;;;;;;;1.53;1.43;;;23.60;99.30;;;23.79;49.52;101301.72;4997605;27;97156;-45
2022/07/31 04:12:28;;;;;;;1.33;1.23;;;23.60;99.40;;;23.78;49.53;101305.38;4997864;27;96829;-50
2022/07/31 04:14:53;;;;;;;1.70;1.57;;;23.60;99.40;;;23.79;49.43;101312.47;4991337;27;97763;-46
2022/07/31 04:17:19;;;;;;;2.90;2.03;;;23.60;99.40;;;23.80;49.41;101314.19;5002583;27;97459;-46
2022/07/31 04:19:45;;;;;;;2.70;1.60;;;23.60;99.30;;;23.78;49.51;101316.16;5000870;27;97549;-47
2022/07/31 04:22:11;;;;;;;1.67;1.57;;;23.60;99.50;;;23.79;49.45;101317.00;5004168;27;97043;-46
2022/07/31 04:24:37;;;;;;;1.50;1.40;;;23.60;99.50;;;23.79;49.54;101320.56;4983475;27;98906;-49
2022/07/31 04:27:03;;;;;;;1.70;1.60;;;23.60;99.50;;;23.79;49.64;101315.19;5000982;27;97711;-44
2022/07/31 04:29:29;;;;;;;1.60;1.50;;;23.60;99.50;;;23.78;49.48;101316.16;5000785;27;97095;-48
2022/07/31 04:31:55;;;;;;;1.70;1.60;;;23.60;99.40;;;23.79;49.64;101301.72;4984664;27;97137;-45
2022/07/31 04:34:21;;;;;;;1.70;1.60;;;23.70;99.40;;;23.79;49.58;101311.63;4998820;27;98809;-44
2022/07/31 04:36:47;;;;;;;1.43;1.33;;;23.70;99.40;;;23.80;49.61;101298.03;4997048;27;97129;-46
2022/07/31 04:39:13;;;;;;;1.50;1.40;;;23.70;99.40;;;23.82;49.63;101306.84;4996740;27;98182;-47
2022/07/31 04:41:39;;;;;;;1.67;1.57;;;23.70;99.40;;;23.84;49.46;101310.25;4997635;27;98254;-45
2022/07/31 04:44:04;;;;;;;1.70;1.60;;;23.70;99.30;;;23.86;49.38;101304.75;5010586;27;97536;-44
2022/07/31 04:46:30;;;;;;;1.85;1.75;;;23.70;99.30;;;23.87;49.31;101301.97;4996716;27;101236;-51
2022/07/31 04:48:56;;;;;;;1.30;1.20;;;23.70;99.30;;;23.87;49.37;101304.66;5000282;27;96875;-45
2022/07/31 04:51:23;;;;;;;1.40;1.30;;;23.70;99.30;;;23.89;49.34;101307.22;5000764;28;99494;-47
2022/07/31 04:53:50;;;;;;;1.60;1.50;;;23.70;99.30;;;23.89;49.37;101312.59;4994025;27;96862;-47
2022/07/31 04:56:36;;;;;;;1.40;1.30;;;23.70;99.30;;;23.89;49.43;101308.06;4994576;27;98233;-46
2022/07/31 04:59:17;;;;;;;1.93;1.70;;;23.70;99.30;;;23.88;49.39;101311.75;5015795;27;97365;-44
2022/07/31 05:01:43;;;;;;;1.70;1.60;;;23.70;99.50;;;23.86;49.46;101310.13;4998471;27;97039;-43
2022/07/31 05:04:10;;;;;;;1.67;1.57;;;23.70;99.50;;;23.84;49.46;101304.88;5000825;28;97193;-44
2022/07/31 05:06:42;;;;;;;1.00;1.00;;;23.70;99.50;;;23.84;49.52;101309.41;5000507;27;97190;-44
2022/07/31 05:09:11;;;;;;;1.50;1.40;;;23.70;99.50;;;23.81;49.51;101305.13;4996238;27;97479;-46
2022/07/31 05:11:39;;;;;;;1.73;1.43;;;23.70;99.50;;;23.81;49.46;101317.75;4996868;27;98104;-46
2022/07/31 05:14:07;;;;;;;2.13;1.37;;;23.60;99.50;;;23.81;49.59;101321.28;5011137;27;97225;-46
2022/07/31 05:16:34;;;;;;;1.40;1.20;;;23.60;99.60;;;23.82;49.63;101317.63;5004715;27;97545;-50
2022/07/31 05:19:01;;;;;;;1.73;1.63;;;23.60;99.80;;;23.82;49.60;101317.63;4999067;27;97347;-48
2022/07/31 05:21:29;;;;;;;2.27;2.07;;;23.60;99.50;;;23.83;49.52;101308.56;5005870;27;97388;-45
2022/07/31 05:23:56;;;;;;;1.80;1.70;;;23.70;99.60;;;23.84;49.71;101325.56;5012256;27;97248;-49
2022/07/31 05:26:22;;;;;;;2.50;1.93;;;23.70;99.70;;;23.83;49.61;101323.84;4998369;27;98594;-46
2022/07/31 05:28:50;;;;;;;2.93;2.13;;;23.60;99.60;;;23.81;49.65;101326.69;4997166;27;97398;-44
2022/07/31 05:31:18;;;;;;;1.50;1.40;;;23.60;99.80;;;23.79;49.65;101320.56;4994564;27;98728;-46
2022/07/31 05:33:46;;;;;;;4.07;1.70;;;23.60;99.70;;;23.81;49.69;101325.81;4989636;27;97025;-45
2022/07/31 05:36:14;;;;;;;1.50;1.40;;;23.60;99.70;;;23.82;49.58;101308.69;4998028;27;96993;-47
2022/07/31 05:38:40;;;;;;;1.57;1.47;;;23.60;99.60;;;23.82;49.63;101314.06;4995389;27;96939;-43
2022/07/31 05:41:06;;;;;;;1.70;1.60;;;23.60;99.70;;;23.82;49.58;101317.63;5007801;27;101352;-44
2022/07/31 05:43:32;;;;;;;3.93;3.13;;;23.70;99.60;;;23.83;50.13;101319.31;5005753;27;96786;-46
2022/07/31 05:45:58;;;;;;;1.63;1.53;;;23.70;99.90;;;23.85;49.63;101311.13;5007260;27;97009;-48
2022/07/31 05:48:24;;;;;;;4.33;3.07;;;23.60;99.80;;;23.83;49.81;101319.31;5014764;27;96742;-44
2022/07/31 05:50:51;;;;;;;4.70;3.03;;;23.60;99.90;;;23.81;49.77;101321.28;4993585;27;98753;-43
2022/07/31 05:53:19;;;;;;;3.20;2.33;;;23.60;99.90;;;23.79;49.82;101317.00;5004919;27;98668;-43
2022/07/31 05:55:47;;;;;;;2.07;1.80;;;23.60;99.80;;;23.79;49.76;101322.41;4994622;27;97611;-43
2022/07/31 05:58:17;;;;;;;1.67;1.50;;;23.60;99.70;;;23.79;49.53;101323.25;4999188;27;98136;-48
2022/07/31 06:00:45;;;;;;;3.60;2.17;;;23.60;99.60;;;23.80;49.75;101321.41;5009508;27;96571;-44
2022/07/31 06:03:11;;;;;;;3.33;2.03;;;23.60;99.60;;;23.80;49.64;101319.59;5007334;27;98492;-50
2022/07/31 06:05:41;;;;;;;2.90;2.27;;;23.60;99.70;;;23.82;49.76;101317.63;4994591;27;96937;-48
2022/07/31 06:08:08;;;;;;;5.60;2.60;;;23.60;99.60;;;23.84;49.38;101321.03;5001894;27;97076;-48
2022/07/31 06:10:38;;;;;;;4.97;2.10;;;23.60;99.40;;;23.84;48.97;101304.03;4995007;27;97410;-47
2022/07/31 06:13:05;;;;;;;3.47;2.10;;;23.60;99.20;;;23.83;49.50;101297.78;4999067;27;100094;-48
2022/07/31 06:15:31;;;;;;;3.40;1.90;;;23.60;99.40;;;23.82;49.61;101306.84;4989105;27;97632;-45
2022/07/31 06:17:58;;;;;;;2.77;2.13;;;23.60;99.70;;;23.81;49.76;101315.91;4989059;27;97192;-44
2022/07/31 06:20:24;;;;;;;3.30;2.50;;;23.60;99.70;;;23.82;49.58;101306.84;4998211;27;97190;-45
2022/07/31 06:22:50;;;;;;;2.47;2.17;;;23.60;99.60;;;23.83;49.11;101311.25;4987801;27;98168;-47
2022/07/31 06:25:16;;;;;;;2.53;1.83;;;23.60;99.30;;;23.82;49.84;101317.63;5005828;27;97374;-47
2022/07/31 06:27:42;;;;;;;3.10;2.27;;;23.70;99.60;;;23.84;49.42;101310.25;4998838;27;97647;-45
2022/07/31 06:30:09;;;;;;;2.97;2.07;;;23.70;99.50;;;23.84;49.57;101307.56;4998420;27;97288;-45
2022/07/31 06:32:36;;;;;;;3.93;2.23;;;23.70;99.60;;;23.84;49.60;101314.78;4996063;27;97135;-47
2022/07/31 06:35:04;;;;;;;3.40;2.20;;;23.60;99.60;;;23.82;49.64;101309.53;4996464;27;97435;-48
2022/07/31 06:37:30;;;;;;;2.93;2.23;;;23.60;99.80;;;23.81;49.68;101299.75;4970943;28;97416;-45
2022/07/31 06:39:56;;;;;;;2.37;2.17;;;23.60;99.70;;;23.83;49.55;101303.16;4985947;27;97581;-44
2022/07/31 06:42:24;;;;;;;4.90;2.50;;;23.60;99.70;;;23.83;49.64;101305.84;4996284;27;97444;-48
2022/07/31 06:44:52;;;;;;;2.23;1.90;;;23.60;99.70;;;23.80;49.75;101299.88;4994134;27;97458;-48
2022/07/31 06:47:21;;;;;;;2.23;1.60;;;23.60;99.70;;;23.80;49.81;101289.94;4995978;27;96643;-46
2022/07/31 06:49:48;;;;;;;3.97;1.90;;;23.70;99.70;;;23.76;49.62;101296.56;4997867;27;97573;-44
2022/07/31 06:52:14;;;;;;;4.13;2.33;;;23.60;99.50;;;23.81;49.68;101294.34;5007726;27;97405;-47
2022/07/31 06:54:42;;;;;;;3.17;1.33;;;23.70;99.70;;;23.83;49.76;101291.53;4992500;27;97705;-48
2022/07/31 06:57:09;;;;;;;4.03;2.43;;;23.70;99.70;;;23.85;49.85;101290.41;4995264;27;97539;-45
2022/07/31 06:59:35;;;;;;;3.30;2.20;;;23.70;99.80;;;23.85;49.53;101301.19;4995481;27;97105;-50
2022/07/31 07:02:01;;;;;;;3.03;1.70;;;23.70;99.50;;;23.83;49.64;101297.78;4991784;27;96931;-46
2022/07/31 07:04:27;;;;;;;4.17;1.87;;;23.70;99.60;;;23.83;49.64;101303.16;4998629;27;97172;-47
2022/07/31 07:06:53;;;;;;;3.25;2.30;;;23.70;99.60;;;23.84;49.76;101304.88;4995257;27;96733;-45
2022/07/31 07:09:18;;;;;;;3.97;2.10;;;23.70;99.60;;;23.83;49.77;101319.31;4994743;27;97262;-46
2022/07/31 07:11:46;;;;;;;6.22;2.20;;;23.70;99.60;;;23.83;49.69;101313.09;4994930;27;97288;-44
2022/07/31 07:14:12;;;;;;;2.33;1.85;;;23.70;99.60;;;23.84;49.74;101315.66;4999866;27;97087;-48
2022/07/31 07:16:38;;;;;;;1.90;1.77;;;23.70;99.50;;;23.87;49.59;101309.16;4992103;27;97146;-47
2022/07/31 07:19:04;;;;;;;2.43;2.07;;;23.70;99.60;;;23.83;49.72;101305.00;4999968;27;96907;-45
2022/07/31 07:21:30;;;;;;;3.83;2.30;;;23.70;99.60;;;23.85;49.69;101313.81;4993338;28;99067;-45
2022/07/31 07:23:55;;;;;;;2.53;2.20;;;23.70;99.60;;;23.87;49.67;101310.03;4994590;27;97503;-44
2022/07/31 07:26:21;;;;;;;4.80;2.50;;;23.70;99.50;;;23.85;49.51;101306.59;4999574;27;97024;-44
2022/07/31 07:28:47;;;;;;;3.27;2.40;;;23.70;99.50;;;23.85;49.67;101306.59;4995259;27;99495;-44
2022/07/31 07:31:13;;;;;;;5.57;2.30;;;23.70;99.50;;;23.88;49.51;101309.06;4999221;27;97386;-45
2022/07/31 07:33:39;;;;;;;3.50;1.90;;;23.80;99.50;;;23.86;49.53;101302.91;4995416;27;97265;-46
2022/07/31 07:36:05;;;;;;;3.08;2.03;;;23.70;99.50;;;23.87;49.64;101292.97;5004266;27;99851;-48
2022/07/31 07:38:31;;;;;;;2.30;2.10;;;23.70;99.50;;;23.88;49.72;101290.19;4998432;27;97378;-45
2022/07/31 07:40:56;;;;;;;3.17;2.20;;;23.70;99.60;;;23.89;49.67;101291.91;4992000;27;97941;-46
2022/07/31 07:43:22;;;;;;;2.60;1.80;;;23.80;99.60;;;23.88;49.68;101292.88;4991535;28;100937;-45
2022/07/31 07:45:48;;;;;;;3.63;2.00;;;23.80;99.60;;;23.87;49.66;101293.88;4989716;28;99139;-47
2022/07/31 07:48:14;;;;;;;4.87;2.13;;;23.80;99.50;;;23.89;49.37;101291.91;5002702;27;97525;-44
2022/07/31 07:50:40;;;;;;;2.50;1.93;;;23.80;99.40;;;23.89;49.54;101291.06;4993478;27;97023;-44
2022/07/31 07:53:07;;;;;;;2.83;1.73;;;23.80;99.50;;;23.89;49.53;101289.22;4997669;27;97185;-46
2022/07/31 07:55:32;;;;;;;2.27;2.00;;;23.70;99.50;;;23.89;49.04;101291.06;4995059;27;97534;-49
2022/07/31 07:57:58;;;;;;;1.83;1.60;;;23.70;99.40;;;23.87;49.49;101282.22;4987260;27;97074;-45
2022/07/31 08:00:24;;;;;;;2.83;1.80;;;23.70;99.60;;;23.88;49.66;101279.41;4988937;27;97351;-47
2022/07/31 08:02:50;;;;;;;4.70;1.77;;;23.70;99.70;;;23.87;49.42;101276.81;4990668;27;102082;-44
2022/07/31 08:05:16;;;;;;;3.53;1.50;;;23.70;99.70;;;23.88;49.91;101274.03;4998013;27;96956;-45
2022/07/31 08:07:43;;;;;;;3.00;2.17;;;23.70;99.90;;;23.82;49.87;101279.91;5004319;27;97217;-44
2022/07/31 08:10:10;;;;;;;3.63;1.83;;;23.70;99.80;;;23.83;50.09;101276.22;5000642;27;97412;-47
2022/07/31 08:12:36;;;;;;;4.47;2.00;;;23.70;99.80;;;23.80;50.00;101279.19;4995200;27;96824;-45
2022/07/31 08:15:04;;;;;;;1.90;1.50;;;23.70;99.90;;;23.84;50.50;101271.69;4999860;27;96818;-47
2022/07/31 08:17:30;;;;;;;3.77;2.10;;;23.70;99.90;;;23.85;51.05;101274.25;4997418;27;97381;-47
2022/07/31 08:19:56;;;;;;;2.63;2.00;;;23.70;99.90;;;23.85;50.48;101276.94;5003883;27;97080;-46
2022/07/31 08:22:22;;;;;;;3.50;2.00;;;23.70;99.90;;;23.85;50.96;101282.34;4994772;27;97266;-48
2022/07/31 08:24:47;;;;;;;2.80;1.63;;;23.70;99.90;;;23.86;50.36;101275.09;4997993;27;97572;-44
2022/07/31 08:27:23;;;;;;;1.57;1.47;;;23.70;99.90;;;23.83;50.01;101265.44;5000147;27;97044;-45
2022/07/31 08:29:53;;;;;;;5.43;2.20;;;23.70;99.90;;;23.84;51.23;101272.53;4999061;27;97076;-45
2022/07/31 08:32:20;;;;;;;1.60;1.50;;;23.70;99.90;;;23.58;50.88;101268.41;5009129;27;97373;-47
2022/07/31 08:34:45;;;;;;;2.87;1.67;;;23.50;99.90;;;23.74;50.39;101263.53;5007062;28;97363;-44
2022/07/31 08:37:12;;;;;;;5.63;2.15;;;23.60;99.90;;;23.82;50.97;101269.13;5010184;27;97126;-44
2022/07/31 08:39:38;;;;;;;3.63;2.00;;;23.70;99.90;;;23.78;50.60;101262.28;4998756;27;101478;-47
2022/07/31 08:42:08;;;;;;;5.13;2.17;;;23.70;99.90;;;23.83;51.01;101270.84;4990017;27;97745;-47
2022/07/31 08:44:36;;;;;;;2.67;2.10;;;23.70;99.90;;;23.85;50.62;101266.19;4999208;27;97214;-45
2022/07/31 08:47:07;;;;;;;2.67;1.80;;;23.70;99.90;;;23.85;50.22;101268.88;5002317;27;97004;-46
2022/07/31 08:49:48;;;;;;;3.37;2.27;;;23.70;99.90;;;23.81;50.75;101266.56;4999768;27;102225;-55
2022/07/31 08:52:23;;;;;;;3.80;2.20;;;23.70;99.90;;;23.82;50.42;101263.75;4994444;28;101832;-45
2022/07/31 08:54:53;;;;;;;4.53;1.95;;;23.70;99.90;;;23.78;50.44;101258.75;4996322;27;97809;-47
2022/07/31 08:57:19;;;;;;;3.17;2.33;;;23.70;99.90;;;23.74;50.85;101269.78;4999950;27;97142;-43
2022/07/31 08:59:47;;;;;;;3.95;1.80;;;23.70;99.90;;;23.74;50.50;101264.38;4996360;27;97404;-47
2022/07/31 09:02:14;;;;;;;2.43;2.10;;;23.70;99.90;;;23.82;50.95;101262.88;4995775;27;99066;-46
2022/07/31 09:04:40;;;;;;;2.83;2.08;;;23.70;99.90;;;23.88;50.96;101263.25;5007685;27;97030;-45
2022/07/31 09:07:13;;;;;;;3.75;2.15;;;23.80;99.90;;;23.86;50.88;101265.19;4993748;28;97213;-46
2022/07/31 09:09:43;;;;;;;3.20;2.25;;;23.80;99.90;;;23.91;50.29;101263.00;5001320;27;96914;-46
2022/07/31 09:12:08;;;;;;;3.38;2.20;;;23.80;99.90;;;23.91;50.55;101263.00;4997231;27;97598;-47
2022/07/31 09:14:35;;;;;;;7.60;4.82;;;23.80;99.90;;;23.85;50.96;101255.41;4998584;27;96939;-46
2022/07/31 09:17:03;;;;;;;4.75;3.03;;;23.80;99.90;;;23.89;50.63;101259.56;4999949;27;97004;-45
2022/07/31 09:19:44;;;;;;;2.10;1.83;;;23.80;99.90;;;23.96;51.11;101260.78;4999557;27;97509;-44
2022/07/31 09:22:28;;;;;;;3.00;1.67;;;23.80;99.90;;;23.98;50.67;101258.81;4994828;28;102587;-43
2022/07/31 09:25:07;;;;;;;2.88;1.80;;;23.90;99.90;;;23.94;51.41;101260.03;5003771;27;97262;-45
2022/07/31 09:27:33;;;;;;;2.40;1.65;;;23.80;99.90;;;23.83;51.29;101260.06;4998841;27;99341;-55
2022/07/31 09:29:59;;;;;;;3.70;2.25;;;23.80;99.90;;;23.80;51.72;101260.31;4997590;27;97541;-46
2022/07/31 09:32:25;;;;;;;2.45;2.00;;;23.80;99.90;;;23.80;51.46;101259.47;4999166;27;97484;-44
2022/07/31 09:34:50;;;;;;;4.35;1.60;;;23.80;99.90;;;23.89;51.59;101259.56;4995319;27;97857;-46
2022/07/31 09:37:24;;;;;;;3.53;1.90;;;23.80;99.90;;;23.78;51.45;101256.91;5000668;28;97103;-46
2022/07/31 09:39:55;;;;;;;3.17;1.90;;;23.80;99.90;;;23.79;51.65;101242.44;4988462;27;97691;-47
2022/07/31 09:42:22;;;;;;;2.65;1.70;;;23.80;99.90;;;23.79;51.96;101250.53;5000634;27;97171;-43
2022/07/31 09:44:50;;;;;;;2.13;1.50;;;23.80;99.90;;;23.82;50.69;101242.19;4986969;27;97147;-46
2022/07/31 09:47:27;;;;;;;2.53;1.80;;;23.80;99.90;;;23.76;51.39;101253.47;4995747;27;97469;-44
2022/07/31 09:49:59;;;;;;;2.10;1.90;;;23.80;99.90;;;23.71;51.25;101256.53;5002234;27;97711;-44
2022/07/31 09:52:28;;;;;;;3.15;2.13;;;23.70;99.90;;;23.75;51.70;101265.25;4999710;27;97936;-44
2022/07/31 09:55:04;;;;;;;5.22;2.80;;;23.80;99.90;;;23.78;51.57;101261.44;4996653;27;96896;-44
2022/07/31 09:57:30;;;;;;;2.70;1.70;;;23.80;99.90;;;23.75;52.17;101254.47;4997435;27;97207;-43
2022/07/31 09:59:56;;;;;;;4.72;1.95;;;23.70;99.90;;;23.82;51.69;101258.34;4994502;27;98360;-47
2022/07/31 10:02:26;;;;;;;3.17;2.00;;;23.80;99.90;;;23.88;52.25;101249.78;5006169;27;97422;-44
2022/07/31 10:04:56;;;;;;;2.00;1.70;;;23.80;99.90;;;23.90;51.11;101246.97;4994469;27;97261;-46
2022/07/31 10:07:28;;;;;;;3.17;2.20;;;23.80;99.90;;;23.93;52.42;101242.16;4996894;27;97373;-44
2022/07/31 10:09:57;;;;;;;7.22;2.70;;;23.90;99.90;;;23.89;52.14;101253.34;5009071;27;99394;-44
2022/07/31 10:12:27;;;;;;;4.70;2.30;;;23.90;99.90;;;23.94;52.57;101245.72;4993719;27;97254;-45
2022/07/31 10:14:58;;;;;;;4.57;2.00;;;23.90;99.90;;;23.94;51.78;101251.97;5001892;27;97659;-44
2022/07/31 10:17:32;;;;;;;3.08;1.92;;;23.90;99.90;;;23.99;50.92;101255.13;4994057;28;96924;-44